createdAt,value
2022-09-18T00:01:33.963Z,100.00
2022-09-18T00:04:07.228Z,96.28
2022-09-18T00:06:38.556Z,94.53
2022-09-18T00:09:09.930Z,95.15
2022-09-18T00:11:40.689Z,96.66
2022-09-18T00:14:10.617Z,92.71
2022-09-18T00:16:39.117Z,95.98
2022-09-18T00:19:07.407Z,95.66
2022-09-18T00:21:37.597Z,92.06
2022-09-18T00:24:06.980Z,96.83
2022-09-18T00:26:35.879Z,95.01
2022-09-18T00:29:04.423Z,96.92
2022-09-18T00:31:35.190Z,97.90
2022-09-18T00:34:11.450Z,97.96
2022-09-18T00:36:39.734Z,98.44
2022-09-18T00:39:08.253Z,96.92
2022-09-18T00:41:39.788Z,98.04
2022-09-18T00:44:46.068Z,100.00
2022-09-18T00:47:29.885Z,99.34
2022-09-18T00:49:57.274Z,100.00
2022-09-18T00:52:29.779Z,100.00
2022-09-18T00:55:02.877Z,100.00
2022-09-18T00:57:34.053Z,99.49
2022-09-18T01:00:04.515Z,98.91
2022-09-18T01:02:32.270Z,100.00
2022-09-18T01:04:59.766Z,99.28
2022-09-18T01:07:54.613Z,90.72
2022-09-18T01:10:40.588Z,92.39
2022-09-18T01:13:34.941Z,93.32
2022-09-18T01:16:22.838Z,94.26
2022-09-18T01:19:24.477Z,90.08
2022-09-18T01:22:22.766Z,91.63
2022-09-18T01:25:08.361Z,91.85
2022-09-18T01:27:40.135Z,92.73
2022-09-18T01:30:11.464Z,96.54
2022-09-18T01:32:59.590Z,96.02
2022-09-18T01:35:42.200Z,96.47
2022-09-18T01:38:32.132Z,96.03
2022-09-18T01:41:12.009Z,95.82
2022-09-18T01:43:41.597Z,88.92
2022-09-18T01:46:15.818Z,91.92
2022-09-18T01:48:57.482Z,89.36
2022-09-18T01:51:40.250Z,92.16
2022-09-18T01:54:17.330Z,89.71
2022-09-18T01:56:51.888Z,94.87
2022-09-18T01:59:25.142Z,93.50
2022-09-18T02:02:03.834Z,90.17
2022-09-18T02:04:36.314Z,89.11
2022-09-18T02:07:28.928Z,88.32
2022-09-18T02:09:58.625Z,87.66
2022-09-18T02:12:29.357Z,90.58
2022-09-18T02:15:06.302Z,90.82
2022-09-18T02:17:59.528Z,77.68
2022-09-18T02:20:38.768Z,84.90
2022-09-18T02:23:08.315Z,85.38
2022-09-18T02:25:46.191Z,86.25
2022-09-18T02:28:17.218Z,82.97
2022-09-18T02:30:45.763Z,84.49
2022-09-18T02:33:30.927Z,83.46
2022-09-18T02:36:07.671Z,86.91
2022-09-18T02:39:09.050Z,85.82
2022-09-18T02:41:58.156Z,86.58
2022-09-18T02:44:43.081Z,87.19
2022-09-18T02:47:31.271Z,88.90
2022-09-18T02:50:13.431Z,89.09
2022-09-18T02:52:41.398Z,86.72
2022-09-18T02:55:32.247Z,88.49
2022-09-18T02:58:05.975Z,85.53
2022-09-18T03:00:36.322Z,84.34
2022-09-18T03:03:15.797Z,81.76
2022-09-18T03:05:51.110Z,80.58
2022-09-18T03:08:19.630Z,81.33
2022-09-18T03:10:47.189Z,81.26
2022-09-18T03:13:15.821Z,82.19
2022-09-18T03:15:43.724Z,82.47
2022-09-18T03:18:11.808Z,80.69
2022-09-18T03:20:42.476Z,80.88
2022-09-18T03:23:11.237Z,82.62
2022-09-18T03:25:39.551Z,79.56
2022-09-18T03:28:09.114Z,79.21
2022-09-18T03:30:40.550Z,80.79
2022-09-18T03:33:08.756Z,82.08
2022-09-18T03:35:36.357Z,82.34
2022-09-18T03:38:03.889Z,82.52
2022-09-18T03:40:32.045Z,82.58
2022-09-18T03:43:04.314Z,83.85
2022-09-18T03:45:32.132Z,83.60
2022-09-18T03:48:00.690Z,83.54
2022-09-18T03:50:29.580Z,83.33
2022-09-18T03:52:57.491Z,82.98
2022-09-18T03:55:39.321Z,82.64
2022-09-18T03:58:22.009Z,82.49
2022-09-18T04:01:08.439Z,81.52
2022-09-18T04:03:56.068Z,81.52
2022-09-18T04:06:49.612Z,80.86
2022-09-18T04:09:37.039Z,80.24
2022-09-18T04:12:04.693Z,81.48
2022-09-18T04:14:32.954Z,82.86
2022-09-18T04:17:00.774Z,83.01
2022-09-18T04:19:30.323Z,82.79
2022-09-18T04:21:58.684Z,82.39
2022-09-18T04:24:26.562Z,82.40
2022-09-18T04:26:54.105Z,81.67
2022-09-18T04:29:24.355Z,82.35
2022-09-18T04:31:52.278Z,81.51
2022-09-18T04:34:22.130Z,81.10
2022-09-18T04:36:49.750Z,80.67
2022-09-18T04:39:17.664Z,79.42
2022-09-18T04:41:48.016Z,81.28
2022-09-18T04:44:15.851Z,81.77
2022-09-18T04:46:44.088Z,82.58
2022-09-18T04:49:11.768Z,81.38
2022-09-18T04:51:39.249Z,81.83
2022-09-18T04:54:06.786Z,80.63
2022-09-18T04:56:38.252Z,77.95
2022-09-18T04:59:05.709Z,78.11
2022-09-18T05:01:38.389Z,80.19
2022-09-18T05:04:11.584Z,79.32
2022-09-18T05:06:48.447Z,80.14
2022-09-18T05:09:17.828Z,80.93
2022-09-18T05:11:45.366Z,81.26
2022-09-18T05:14:13.140Z,80.22
2022-09-18T05:16:44.471Z,80.85
2022-09-18T05:19:37.474Z,81.20
2022-09-18T05:22:10.563Z,82.41
2022-09-18T05:24:42.283Z,81.65
2022-09-18T05:27:09.759Z,81.15
2022-09-18T05:29:37.964Z,81.38
2022-09-18T05:32:18.559Z,81.23
2022-09-18T05:34:50.411Z,80.80
2022-09-18T05:37:18.902Z,80.25
2022-09-18T05:39:50.678Z,81.54
2022-09-18T05:42:18.154Z,81.09
2022-09-18T05:44:45.567Z,81.63
2022-09-18T05:47:18.287Z,80.73
2022-09-18T05:49:45.800Z,80.87
2022-09-18T05:52:13.654Z,80.29
2022-09-18T05:54:41.768Z,79.70
2022-09-18T05:57:10.265Z,79.91
2022-09-18T05:59:37.852Z,79.35
2022-09-18T06:02:06.296Z,79.18
2022-09-18T06:04:53.895Z,78.96
2022-09-18T06:07:21.277Z,79.14
2022-09-18T06:09:50.025Z,78.54
2022-09-18T06:12:17.516Z,77.88
2022-09-18T06:14:44.969Z,78.44
2022-09-18T06:17:12.301Z,78.48
2022-09-18T06:19:39.835Z,78.27
2022-09-18T06:22:08.427Z,78.79
2022-09-18T06:24:37.125Z,77.61
2022-09-18T06:27:10.150Z,76.31
2022-09-18T06:29:39.087Z,76.54
2022-09-18T06:32:11.735Z,76.27
2022-09-18T06:34:40.798Z,76.49
2022-09-18T06:37:12.192Z,77.32
2022-09-18T06:39:42.875Z,76.72
2022-09-18T06:42:17.173Z,76.68
2022-09-18T06:45:16.731Z,76.26
2022-09-18T06:47:47.623Z,76.33
2022-09-18T06:50:15.051Z,76.77
2022-09-18T06:52:45.311Z,76.96
2022-09-18T06:55:13.072Z,75.00
2022-09-18T06:57:40.723Z,75.69
2022-09-18T07:00:11.799Z,74.99
2022-09-18T07:02:40.434Z,75.39
2022-09-18T07:05:32.952Z,76.07
2022-09-18T07:08:00.781Z,74.35
2022-09-18T07:10:30.991Z,74.29
2022-09-18T07:13:00.870Z,74.11
2022-09-18T07:15:29.942Z,72.35
2022-09-18T07:18:03.067Z,72.38
2022-09-18T07:20:30.982Z,71.44
2022-09-18T07:23:01.289Z,72.07
2022-09-18T07:25:41.397Z,73.09
2022-09-18T07:28:11.490Z,76.32
2022-09-18T07:30:46.752Z,76.34
2022-09-18T07:33:15.650Z,75.59
2022-09-18T07:35:48.097Z,75.65
2022-09-18T07:38:17.852Z,75.46
2022-09-18T07:40:53.059Z,74.41
2022-09-18T07:43:28.999Z,74.78
2022-09-18T07:45:56.590Z,74.25
2022-09-18T07:48:24.635Z,73.03
2022-09-18T07:50:58.623Z,72.83
2022-09-18T07:53:26.716Z,71.30
2022-09-18T07:55:57.922Z,70.31
2022-09-18T07:58:27.268Z,68.79
2022-09-18T08:01:02.827Z,68.33
2022-09-18T08:03:32.615Z,68.70
2022-09-18T08:06:20.768Z,68.25
2022-09-18T08:09:08.433Z,67.74
2022-09-18T08:11:54.428Z,67.33
2022-09-18T08:14:30.405Z,66.20
2022-09-18T08:17:20.798Z,65.95
2022-09-18T08:20:14.651Z,65.90
2022-09-18T08:22:48.972Z,65.46
2022-09-18T08:25:18.119Z,65.29
2022-09-18T08:27:48.621Z,64.32
2022-09-18T08:30:22.704Z,64.45
2022-09-18T08:33:08.019Z,64.54
2022-09-18T08:35:35.844Z,62.88
2022-09-18T08:38:17.062Z,62.84
2022-09-18T08:41:50.308Z,62.02
2022-09-18T08:44:24.551Z,63.61
2022-09-18T08:47:01.006Z,59.71
2022-09-18T08:49:32.535Z,59.73
2022-09-18T08:52:23.566Z,59.14
2022-09-18T08:55:33.651Z,58.65
2022-09-18T08:58:16.699Z,58.12
2022-09-18T09:01:16.159Z,58.66
2022-09-18T09:04:13.116Z,57.92
2022-09-18T09:06:55.771Z,56.17
2022-09-18T09:09:40.455Z,56.40
2022-09-18T09:12:24.071Z,57.13
2022-09-18T09:15:20.818Z,56.30
2022-09-18T09:18:23.293Z,54.69
2022-09-18T09:20:55.260Z,54.49
2022-09-18T09:23:46.455Z,52.85
2022-09-18T09:26:28.509Z,51.67
2022-09-18T09:29:24.033Z,51.52
2022-09-18T09:32:28.822Z,51.38
2022-09-18T09:35:17.066Z,50.98
2022-09-18T09:38:13.351Z,50.90
2022-09-18T09:40:50.237Z,51.98
2022-09-18T09:43:24.851Z,51.42
2022-09-18T09:45:59.569Z,50.77
2022-09-18T09:48:36.819Z,51.67
2022-09-18T09:51:49.999Z,51.61
2022-09-18T09:54:17.782Z,51.25
2022-09-18T09:56:57.300Z,52.01
2022-09-18T09:59:40.716Z,51.97
2022-09-18T10:02:56.593Z,51.88
2022-09-18T10:05:45.004Z,52.20
2022-09-18T10:08:29.511Z,51.50
2022-09-18T10:11:11.544Z,51.78
2022-09-18T10:13:44.143Z,51.25
2022-09-18T10:16:24.909Z,51.45
2022-09-18T10:18:53.961Z,50.41
2022-09-18T10:21:27.428Z,51.01
2022-09-18T10:24:01.485Z,50.65
2022-09-18T10:26:38.423Z,51.10
2022-09-18T10:29:06.370Z,50.15
2022-09-18T10:31:48.719Z,51.30
2022-09-18T10:34:41.517Z,50.93
2022-09-18T10:37:46.416Z,50.88
2022-09-18T10:40:32.062Z,50.06
2022-09-18T10:43:01.356Z,49.51
2022-09-18T10:45:40.474Z,50.44
2022-09-18T10:48:27.882Z,49.40
2022-09-18T10:51:04.940Z,50.82
2022-09-18T10:53:42.787Z,49.67
2022-09-18T10:56:26.283Z,48.82
2022-09-18T10:58:57.616Z,48.79
2022-09-18T11:01:26.506Z,48.93
2022-09-18T11:04:06.985Z,50.64
2022-09-18T11:06:38.072Z,49.73
2022-09-18T11:09:33.744Z,49.49
2022-09-18T11:12:02.687Z,49.09
2022-09-18T11:14:41.990Z,49.69
2022-09-18T11:17:24.035Z,49.93
2022-09-18T11:19:55.145Z,49.36
2022-09-18T11:22:46.018Z,48.85
2022-09-18T11:25:28.954Z,48.96
2022-09-18T11:28:24.126Z,49.11
2022-09-18T11:30:59.278Z,49.56
2022-09-18T11:33:31.560Z,49.23
2022-09-18T11:36:05.949Z,49.06
2022-09-18T11:38:46.213Z,48.94
2022-09-18T11:41:23.467Z,48.78
2022-09-18T11:44:04.891Z,49.41
2022-09-18T11:46:52.096Z,49.05
2022-09-18T11:52:04.286Z,48.94
2022-09-18T11:57:21.790Z,49.42
2022-09-18T12:00:05.049Z,49.09
2022-09-18T12:02:53.171Z,48.62
2022-09-18T12:05:41.253Z,47.89
2022-09-18T12:08:21.494Z,48.12
2022-09-18T12:11:24.237Z,47.82
2022-09-18T12:14:13.731Z,47.59
2022-09-18T12:17:28.221Z,48.30
2022-09-18T12:20:02.636Z,47.57
2022-09-18T12:22:45.164Z,47.88
2022-09-18T12:25:17.162Z,47.38
2022-09-18T12:28:15.031Z,47.02
2022-09-18T12:30:54.874Z,47.53
2022-09-18T12:33:48.590Z,47.97
2022-09-18T12:36:37.702Z,47.90
2022-09-18T12:39:24.269Z,47.29
2022-09-18T12:42:19.001Z,47.86
2022-09-18T12:45:05.047Z,46.92
2022-09-18T12:47:57.340Z,46.94
2022-09-18T12:50:59.280Z,46.22
2022-09-18T12:53:45.377Z,46.90
2022-09-18T12:56:27.307Z,46.43
2022-09-18T12:59:01.447Z,46.44
2022-09-18T13:02:00.471Z,45.53
2022-09-18T13:04:41.010Z,44.64
2022-09-18T13:07:17.385Z,45.49
2022-09-18T13:10:07.277Z,45.24
2022-09-18T13:12:41.773Z,44.82
2022-09-18T13:15:33.941Z,45.31
2022-09-18T13:18:19.172Z,45.70
2022-09-18T13:20:47.284Z,44.83
2022-09-18T13:23:39.521Z,45.33
2022-09-18T13:26:13.361Z,46.13
2022-09-18T13:28:42.641Z,45.34
2022-09-18T13:31:32.683Z,45.89
2022-09-18T13:34:01.524Z,45.85
2022-09-18T13:36:38.464Z,46.43
2022-09-18T13:39:16.175Z,46.18
2022-09-18T13:41:50.677Z,46.65
2022-09-18T13:44:21.634Z,46.44
2022-09-18T13:46:51.871Z,46.24
2022-09-18T13:49:29.164Z,46.89
2022-09-18T13:51:57.218Z,45.92
2022-09-18T13:54:28.530Z,46.37
2022-09-18T13:57:11.183Z,46.88
2022-09-18T13:59:48.622Z,47.24
2022-09-18T14:02:31.501Z,47.02
2022-09-18T14:05:18.895Z,46.73
2022-09-18T14:07:54.163Z,47.87
2022-09-18T14:10:26.712Z,48.27
2022-09-18T14:13:24.341Z,47.82
2022-09-18T14:15:59.211Z,48.02
2022-09-18T14:18:45.091Z,49.20
2022-09-18T14:21:18.976Z,49.33
2022-09-18T14:23:46.733Z,47.88
2022-09-18T14:26:37.501Z,48.87
2022-09-18T14:29:11.040Z,48.10
2022-09-18T14:31:41.511Z,46.99
2022-09-18T14:34:22.247Z,49.62
2022-09-18T14:36:55.417Z,50.59
2022-09-18T14:39:28.709Z,49.86
2022-09-18T14:42:00.313Z,50.77
2022-09-18T14:44:30.036Z,50.97
2022-09-18T14:46:59.986Z,51.01
2022-09-18T14:49:31.628Z,51.92
2022-09-18T14:52:04.956Z,50.90
2022-09-18T14:54:40.392Z,49.24
2022-09-18T14:57:15.407Z,51.51
2022-09-18T14:59:43.063Z,49.64
2022-09-18T15:02:32.223Z,51.03
2022-09-18T15:05:02.267Z,50.20
2022-09-18T15:07:31.055Z,49.83
2022-09-18T15:10:02.922Z,50.11
2022-09-18T15:12:33.010Z,49.75
2022-09-18T15:15:00.516Z,49.84
2022-09-18T15:17:31.109Z,49.82
2022-09-18T15:20:02.851Z,51.99
2022-09-18T15:22:31.270Z,50.00
2022-09-18T15:25:02.089Z,49.65
2022-09-18T15:27:31.936Z,49.68
2022-09-18T15:30:01.675Z,51.26
2022-09-18T15:32:38.415Z,50.77
2022-09-18T15:35:13.032Z,50.65
2022-09-18T15:37:50.594Z,49.94
2022-09-18T15:40:25.028Z,51.34
2022-09-18T15:42:59.463Z,50.68
2022-09-18T15:45:30.118Z,50.71
2022-09-18T15:48:00.828Z,50.23
2022-09-18T15:50:34.070Z,50.93
2022-09-18T15:53:14.090Z,50.33
2022-09-18T15:56:02.833Z,51.25
2022-09-18T15:58:35.675Z,52.97
2022-09-18T16:01:06.978Z,51.97
2022-09-18T16:03:41.803Z,53.11
2022-09-18T16:06:21.766Z,52.78
2022-09-18T16:08:53.238Z,52.87
2022-09-18T16:11:46.686Z,53.06
2022-09-18T16:14:43.867Z,52.53
2022-09-18T16:17:31.216Z,52.35
2022-09-18T16:20:20.352Z,52.58
2022-09-18T16:22:49.474Z,52.04
2022-09-18T16:25:24.665Z,54.44
2022-09-18T16:27:56.646Z,54.13
2022-09-18T16:30:25.575Z,53.38
2022-09-18T16:33:00.198Z,55.55
2022-09-18T16:35:27.930Z,55.06
2022-09-18T16:37:56.022Z,55.31
2022-09-18T16:40:27.616Z,56.97
2022-09-18T16:42:58.659Z,56.09
2022-09-18T16:45:29.190Z,56.29
2022-09-18T16:48:00.498Z,56.66
2022-09-18T16:50:28.410Z,56.39
2022-09-18T16:53:00.718Z,56.91
2022-09-18T16:55:30.990Z,57.87
2022-09-18T16:57:58.899Z,57.22
2022-09-18T17:00:28.073Z,57.78
2022-09-18T17:02:57.275Z,59.35
2022-09-18T17:05:26.340Z,59.73
2022-09-18T17:07:54.061Z,60.69
2022-09-18T17:10:21.900Z,61.01
2022-09-18T17:12:49.562Z,61.26
2022-09-18T17:15:17.466Z,61.47
2022-09-18T17:17:45.867Z,61.93
2022-09-18T17:20:17.991Z,62.29
2022-09-18T17:22:47.264Z,62.29
2022-09-18T17:25:16.075Z,62.40
2022-09-18T17:27:44.104Z,63.27
2022-09-18T17:30:12.938Z,63.66
2022-09-18T17:32:40.513Z,64.11
2022-09-18T17:35:08.361Z,64.98
2022-09-18T17:37:36.171Z,64.45
2022-09-18T17:40:03.815Z,64.51
2022-09-18T17:42:31.516Z,64.94
2022-09-18T17:44:59.333Z,64.71
2022-09-18T17:47:26.838Z,65.01
2022-09-18T17:49:54.330Z,65.62
2022-09-18T17:52:21.846Z,65.78
2022-09-18T17:54:49.800Z,66.29
2022-09-18T17:57:17.750Z,66.12
2022-09-18T17:59:45.330Z,65.71
2022-09-18T18:02:14.017Z,67.02
2022-09-18T18:04:41.718Z,66.59
2022-09-18T18:07:09.400Z,67.22
2022-09-18T18:09:37.815Z,68.50
2022-09-18T18:12:06.235Z,68.90
2022-09-18T18:14:34.922Z,67.35
2022-09-18T18:17:04.360Z,68.58
2022-09-18T18:19:31.753Z,68.39
2022-09-18T18:21:59.235Z,69.67
2022-09-18T18:24:27.250Z,69.34
2022-09-18T18:26:56.045Z,67.81
2022-09-18T18:29:24.099Z,69.93
2022-09-18T18:31:52.021Z,70.34
2022-09-18T18:34:25.449Z,71.53
2022-09-18T18:36:53.517Z,62.54
2022-09-18T18:39:20.966Z,67.93
2022-09-18T18:41:48.896Z,66.98
2022-09-18T18:44:16.610Z,71.43
2022-09-18T18:46:44.611Z,73.81
2022-09-18T18:49:16.863Z,76.21
2022-09-18T18:51:48.056Z,79.63
2022-09-18T18:54:17.897Z,80.85
2022-09-18T18:56:47.302Z,79.70
2022-09-18T18:59:17.188Z,82.73
2022-09-18T19:01:44.915Z,82.57
2022-09-18T19:04:15.411Z,85.20
2022-09-18T19:06:44.371Z,85.87
2022-09-18T19:09:20.487Z,88.73
2022-09-18T19:11:50.327Z,86.57
2022-09-18T19:14:23.705Z,90.50
2022-09-18T19:16:52.206Z,86.91
2022-09-18T19:19:23.736Z,88.17
2022-09-18T19:21:53.061Z,86.44
2022-09-18T19:24:21.656Z,88.28
2022-09-18T19:26:49.380Z,87.70
2022-09-18T19:29:19.015Z,89.85
2022-09-18T19:31:47.433Z,88.51
2022-09-18T19:34:18.975Z,90.60
2022-09-18T19:36:50.481Z,88.13
2022-09-18T19:39:24.121Z,91.73
2022-09-18T19:42:08.278Z,88.68
2022-09-18T19:44:48.596Z,89.90
2022-09-18T19:47:28.060Z,92.12
2022-09-18T19:50:02.059Z,92.20
2022-09-18T19:52:30.957Z,89.58
2022-09-18T19:54:59.346Z,90.00
2022-09-18T19:57:28.727Z,91.60
2022-09-18T19:59:57.479Z,91.28
2022-09-18T20:02:25.738Z,91.22
2022-09-18T20:04:53.442Z,91.46
2022-09-18T20:07:20.922Z,87.14
2022-09-18T20:09:48.623Z,87.24
2022-09-18T20:12:16.269Z,86.80
2022-09-18T20:14:43.856Z,88.53
2022-09-18T20:17:11.534Z,92.14
2022-09-18T20:19:39.101Z,93.09
2022-09-18T20:22:06.592Z,93.32
2022-09-18T20:24:34.531Z,95.26
2022-09-18T20:27:02.064Z,96.20
2022-09-18T20:29:30.734Z,96.96
2022-09-18T20:31:58.395Z,96.91
2022-09-18T20:34:26.274Z,97.43
2022-09-18T20:36:55.152Z,97.46
2022-09-18T20:39:22.773Z,97.57
2022-09-18T20:41:51.398Z,97.52
2022-09-18T20:44:22.257Z,98.80
2022-09-18T20:46:50.777Z,98.09
2022-09-18T20:49:18.299Z,99.02
2022-09-18T20:51:46.286Z,98.74
2022-09-18T20:54:14.929Z,98.75
2022-09-18T20:56:44.800Z,98.66
2022-09-18T20:59:16.187Z,98.61
2022-09-18T21:01:45.159Z,97.23
2022-09-18T21:04:17.645Z,97.08
2022-09-18T21:06:57.591Z,100.00
2022-09-18T21:09:27.060Z,96.03
2022-09-18T21:11:56.977Z,97.86
2022-09-18T21:14:27.646Z,96.10
2022-09-18T21:16:56.109Z,96.80
2022-09-18T21:19:26.353Z,96.82
2022-09-18T21:21:54.070Z,97.94
2022-09-18T21:24:22.622Z,99.56
2022-09-18T21:26:50.602Z,100.00
2022-09-18T21:29:21.178Z,95.99
2022-09-18T21:31:51.605Z,93.82
2022-09-18T21:34:30.371Z,97.50
2022-09-18T21:37:00.078Z,100.00
2022-09-18T21:39:28.618Z,96.21
2022-09-18T21:41:58.387Z,98.14
2022-09-18T21:44:28.374Z,100.00
2022-09-18T21:47:02.262Z,100.00
2022-09-18T21:49:30.778Z,100.00
2022-09-18T21:52:06.966Z,100.00
2022-09-18T21:54:34.621Z,100.00
2022-09-18T21:57:02.724Z,100.00
2022-09-18T21:59:32.108Z,100.00
2022-09-18T22:02:00.879Z,100.00
2022-09-18T22:04:30.893Z,100.00
2022-09-18T22:07:00.619Z,100.00
2022-09-18T22:09:30.798Z,100.00
2022-09-18T22:11:58.656Z,100.00
2022-09-18T22:14:32.477Z,100.00
2022-09-18T22:17:01.900Z,100.00
2022-09-18T22:19:29.625Z,100.00
2022-09-18T22:21:57.243Z,100.00
2022-09-18T22:24:26.159Z,100.00
2022-09-18T22:27:08.672Z,100.00
2022-09-18T22:29:37.895Z,100.00
2022-09-18T22:32:06.198Z,100.00
2022-09-18T22:34:37.276Z,100.00
2022-09-18T22:37:05.561Z,100.00
2022-09-18T22:39:33.133Z,100.00
2022-09-18T22:42:01.133Z,100.00
2022-09-18T22:44:28.507Z,100.00
2022-09-18T22:46:56.100Z,100.00
2022-09-18T22:49:24.383Z,100.00
2022-09-18T22:51:52.562Z,100.00
2022-09-18T22:54:25.147Z,100.00
2022-09-18T22:56:53.594Z,100.00
2022-09-18T22:59:23.219Z,100.00
2022-09-18T23:02:00.916Z,100.00
2022-09-18T23:04:30.248Z,100.00
2022-09-18T23:06:59.535Z,100.00
2022-09-18T23:09:27.778Z,100.00
2022-09-18T23:11:55.902Z,100.00
2022-09-18T23:14:26.503Z,100.00
2022-09-18T23:16:55.004Z,100.00
2022-09-18T23:19:27.124Z,100.00
2022-09-18T23:21:55.867Z,100.00
2022-09-18T23:24:24.057Z,100.00
2022-09-18T23:26:53.025Z,100.00
2022-09-18T23:29:22.979Z,100.00
2022-09-18T23:31:58.013Z,100.00
2022-09-18T23:34:29.469Z,100.00
2022-09-18T23:36:58.733Z,100.00
2022-09-18T23:39:28.879Z,100.00
2022-09-18T23:41:59.000Z,100.00
2022-09-18T23:44:28.913Z,100.00
2022-09-18T23:46:56.498Z,100.00
2022-09-18T23:49:24.106Z,100.00
2022-09-18T23:51:54.190Z,100.00
2022-09-18T23:54:24.380Z,100.00
2022-09-18T23:56:52.886Z,100.00
2022-09-18T23:59:23.039Z,100.00
